Manti, UT (84642)

12:07 AM MDT on August 23, 2014 (GMT -0600)
KUTSPRIN7 | Change Station
CLOSE
Current Station
Personal Weather Station
Location: Spring City, UT
Elevation: 5843 ft
Nearby Weather Stations

Elev 5843 ft 39.48 °N, 111.49 °W | Updated 22 minutes ago

Mostly Cloudy
Mostly Cloudy
55.2 °F
Feels Like 55.2 °F
N
2.0
Wind Variable Wind from East
Gusts 9.0 mph

Today
High -- | Low -- °F
--% Chance of Precip.
Yesterday
High -- | Low -- °F
Precip. -- in
6:46 AM 8:10 PM
Waning Crescent, 5% visible
Pressure 29.90 in
Visibility 10.0 miles
Clouds Mostly Cloudy 6000 ft
Dew Point 51 °F
Humidity 85%
Rainfall 0.00 in
Snow Depth Not available.
UV 0.0 out of 12
Pollen 8.50 out of 12
Air Quality Not available.
Flu Activity Not available.
METAR KPUC 230553Z AUTO 32015G30KT 10SM BKN060 14/08 A3007 RMK AO2 PK WND 32034/0521 LTG DSNT NE-S RAE06 TSE02B15E30 SLP123 P0000 60008 T01440078 10206 20144 53019

More Conditions Fewer Conditions

Pressure 29.90 in
Visibility 10.0 miles
Clouds Mostly Cloudy 6000 ft
Dew Point 51 °F
Humidity 85%
Rainfall 0.00 in
Snow Depth Not available.
UV 0.0 out of 12
Pollen 8.50 out of 12
Air Quality Not available.
Flu Activity Not available.
METAR KPUC 230553Z AUTO 32015G30KT 10SM BKN060 14/08 A3007 RMK AO2 PK WND 32034/0521 LTG DSNT NE-S RAE06 TSE02B15E30 SLP123 P0000 60008 T01440078 10206 20144 53019

More Conditions Fewer Conditions

10-Day Weather Forecast

Almanac

Astronomy

Aug. 23, 2014 Rise Set
Actual Time 6:46 AM MDT 8:10 PM MDT
Civil Twilight 6:18 AM MDT 8:38 PM MDT
Nautical Twilight 5:45 AM MDT 9:12 PM MDT
Astronomical Twilight 5:09 AM MDT 9:47 PM MDT
Moon 5:06 AM MDT 6:57 PM MDT
Length of Visible Light 14h 19m
Length of Day
13h 23m
Tomorrow will be 2m 23s shorter.
Waning Crescent, 5% of the Moon is Illuminated
Today
Waning Crescent
Aug 25
New
Sep 2
First Quarter
Sep 8
Full
Sep 15
Last Quarter

Today's Extremes

State Highs State Lows

Community

WunderPhotos

Upload Photos

1,746,372 photos uploaded!

WunderBlogs® & News

By Dr. Jeff Masters
Director of Meteorology, Weather Underground
By Kari Strenfel
Meteorologist, Weather Underground
By Christopher C. Burt
Weather Historian, Weather Underground
August 23, 2014
August 23, 2014
August 22, 2014

Nearby

Snow Depth

Station Depth Elevation
Seeley Creek 0 in 10000 ft
Red Pine Ridge 0 in 9200 ft
Gooseberry R.S. 0 in 7920 ft
Black Flat-U.M. Creek 0 in 9400 ft
Payson R.S. 0 in 8050 ft

Earthquake Activity

City Distance Mag. Time & Date
No recent earthquake activity has been reported nearby.
Minimum magnitude displayed is 2.5.

Coastal Water Temperatures

Place Temperature
No Stations Reporting

Nearby Weather Stations